createdAt,value
2023-01-30T00:07:38.610Z,978.13
2023-01-30T00:22:46.467Z,978.22
2023-01-30T00:37:54.406Z,978
2023-01-30T00:52:56.466Z,977.87
2023-01-30T01:07:58.284Z,977.87
2023-01-30T01:23:00.138Z,977.92
2023-01-30T01:38:01.985Z,977.93
2023-01-30T01:53:03.925Z,977.89
2023-01-30T02:08:05.782Z,977.75
2023-01-30T02:23:07.635Z,977.73
2023-01-30T02:38:09.439Z,977.8
2023-01-30T02:53:11.270Z,977.83
2023-01-30T03:08:13.098Z,978.03
2023-01-30T03:23:14.909Z,978.2
2023-01-30T03:38:16.771Z,978.36
2023-01-30T03:53:18.663Z,978.39
2023-01-30T04:08:20.516Z,978.68
2023-01-30T04:23:22.380Z,978.71
2023-01-30T04:38:24.250Z,978.73
2023-01-30T04:53:26.113Z,978.79
2023-01-30T05:08:27.960Z,978.86
2023-01-30T05:23:29.793Z,978.84
2023-01-30T05:38:31.673Z,978.8
2023-01-30T05:53:33.557Z,978.74
2023-01-30T06:08:35.407Z,978.89
2023-01-30T06:23:37.288Z,979.22
2023-01-30T06:38:39.128Z,979.4
2023-01-30T06:53:41.087Z,979.73
2023-01-30T07:08:43.007Z,979.61
2023-01-30T07:23:44.904Z,979.47
2023-01-30T07:38:46.888Z,979.61
2023-01-30T07:53:48.909Z,979.59
2023-01-30T08:08:50.870Z,979.6
2023-01-30T08:23:52.788Z,979.73
2023-01-30T08:38:54.709Z,979.6
2023-01-30T08:53:56.605Z,979.73
2023-01-30T09:08:58.650Z,979.93
2023-01-30T09:24:00.600Z,979.87
2023-01-30T09:39:02.563Z,979.91
2023-01-30T09:54:04.459Z,979.91
2023-01-30T10:09:06.375Z,979.91
2023-01-30T10:24:08.321Z,980.04
2023-01-30T10:39:10.240Z,980.06
2023-01-30T10:54:12.144Z,980.15
2023-01-30T11:09:14.085Z,980.1
2023-01-30T11:24:16.010Z,980.12
2023-01-30T11:39:17.916Z,980.12
2023-01-30T11:54:19.854Z,980.33
2023-01-30T12:09:21.766Z,980.4
2023-01-30T12:24:23.703Z,980.54
2023-01-30T12:39:25.632Z,980.57
2023-01-30T12:54:27.531Z,980.62
2023-01-30T13:09:29.435Z,980.65
2023-01-30T13:24:31.358Z,980.77
2023-01-30T13:39:33.258Z,980.84
2023-01-30T13:54:35.181Z,980.88
2023-01-30T14:09:37.060Z,980.95
2023-01-30T14:24:38.951Z,981
2023-01-30T14:39:40.864Z,981.06
2023-01-30T14:54:42.830Z,981.06
2023-01-30T15:09:44.722Z,981.2
2023-01-30T15:24:46.677Z,981.18
2023-01-30T15:39:48.615Z,981.14
2023-01-30T15:54:50.518Z,981.36
2023-01-30T16:10:05.943Z,981.34
2023-01-30T16:25:09.077Z,981.18
2023-01-30T16:40:10.976Z,981.27
2023-01-30T16:55:12.892Z,981.31
2023-01-30T17:10:14.869Z,981.35
2023-01-30T17:25:16.815Z,981.32
2023-01-30T17:40:19.099Z,981.2
2023-01-30T17:55:21.923Z,981
2023-01-30T18:10:24.021Z,980.99
2023-01-30T18:25:25.955Z,980.97
2023-01-30T18:40:27.846Z,980.92
2023-01-30T18:55:29.927Z,980.59
2023-01-30T19:10:31.852Z,980.5
2023-01-30T19:25:33.750Z,980.27
2023-01-30T19:40:35.612Z,980.08
2023-01-30T19:55:37.539Z,979.91
2023-01-30T20:10:39.440Z,979.47
2023-01-30T20:25:41.328Z,979.19
2023-01-30T20:40:43.307Z,978.91
2023-01-30T20:55:45.284Z,978.67
2023-01-30T21:10:47.204Z,978.24
2023-01-30T21:25:49.112Z,977.93
2023-01-30T21:40:51.042Z,977.66
2023-01-30T21:55:52.977Z,977.54
2023-01-30T22:10:55.097Z,977.39
2023-01-30T22:25:57.397Z,977.23
2023-01-30T22:40:59.357Z,977.25
2023-01-30T22:56:01.318Z,977.02
2023-01-30T23:11:03.346Z,976.88
2023-01-30T23:26:05.261Z,976.76
2023-01-30T23:41:07.228Z,976.72
2023-01-30T23:56:09.143Z,976.6
